Time;durP1;ratioP1;P1;durP2;ratioP2;P2;SDS_P1;SDS_P2;PMS_P1;PMS_P2;Temp;Humidity;BMP_temperature;BMP_pressure;BME280_temperature;BME280_humidity;BME280_pressure;Samples;Min_cycle;Max_cycle;Signal;HPM_P1;HPM_P2
2023/04/09 00:02:25;;;;;;;26.08;11.95;;;13.00;75.70;;;;;;7381921;19;20444;-70
2023/04/09 00:04:53;;;;;;;26.95;12.15;;;12.90;75.90;;;;;;7380910;19;20019;-71
2023/04/09 00:07:22;;;;;;;27.30;12.52;;;12.70;76.40;;;;;;7381314;19;20007;-72
2023/04/09 00:09:51;;;;;;;22.98;11.50;;;12.70;76.60;;;;;;7381933;19;20046;-72
2023/04/09 00:12:19;;;;;;;23.40;11.73;;;12.70;76.90;;;;;;7382159;19;20708;-72
2023/04/09 00:14:48;;;;;;;21.67;11.52;;;12.70;76.80;;;;;;7401746;19;20002;-71
2023/04/09 00:17:20;;;;;;;24.05;12.15;;;12.80;76.70;;;;;;7380395;19;20010;-71
2023/04/09 00:19:49;;;;;;;24.30;11.73;;;12.80;76.80;;;;;;7380826;19;20007;-72
2023/04/09 00:22:18;;;;;;;26.55;12.13;;;12.80;77.80;;;;;;7381191;19;20370;-72
2023/04/09 00:24:46;;;;;;;27.95;13.55;;;12.70;77.30;;;;;;7381413;19;20059;-72
2023/04/09 00:27:15;;;;;;;21.25;11.32;;;12.70;77.70;;;;;;7381859;19;20015;-72
2023/04/09 00:29:44;;;;;;;25.08;12.27;;;12.60;77.90;;;;;;7402828;19;20019;-72
2023/04/09 00:32:12;;;;;;;25.02;12.30;;;12.60;76.90;;;;;;7380274;19;20024;-72
2023/04/09 00:34:44;;;;;;;24.95;12.35;;;12.60;76.90;;;;;;7379023;19;20023;-72
2023/04/09 00:37:12;;;;;;;24.20;12.10;;;12.70;76.80;;;;;;7380899;19;19998;-71
2023/04/09 00:39:41;;;;;;;27.95;12.05;;;12.70;76.80;;;;;;7379551;19;20010;-71
2023/04/09 00:42:10;;;;;;;27.00;12.48;;;12.70;77.20;;;;;;7381280;19;20038;-72
2023/04/09 00:44:38;;;;;;;23.85;12.27;;;12.60;76.70;;;;;;7402652;19;20010;-72
2023/04/09 00:47:07;;;;;;;23.98;11.93;;;12.60;76.50;;;;;;7382070;19;20007;-72
2023/04/09 00:49:36;;;;;;;27.70;13.13;;;12.60;76.40;;;;;;7382634;19;20019;-73
2023/04/09 00:52:07;;;;;;;25.10;13.00;;;12.60;76.40;;;;;;7384289;19;20002;-74
2023/04/09 00:54:36;;;;;;;;;;;12.60;76.60;;;;;;7379838;19;20006;-71
2023/04/09 00:57:05;;;;;;;25.95;12.43;;;12.50;76.70;;;;;;7380304;19;19915;-71
2023/04/09 00:59:34;;;;;;;21.75;11.82;;;12.50;76.80;;;;;;7399974;19;20003;-71
2023/04/09 01:02:03;;;;;;;26.00;12.75;;;12.50;76.80;;;;;;7380061;19;20006;-71
2023/04/09 01:04:32;;;;;;;25.70;13.25;;;12.50;76.70;;;;;;7379893;19;20010;-70
2023/04/09 01:07:10;;;;;;;26.55;13.05;;;12.50;76.40;;;;;;7379866;19;20010;-70
2023/04/09 01:09:44;;;;;;;30.52;13.30;;;12.50;76.10;;;;;;7378673;19;20552;-70
2023/04/09 01:12:32;;;;;;;27.98;13.43;;;12.50;76.40;;;;;;7379840;19;20006;-70
2023/04/09 01:15:07;;;;;;;25.50;13.18;;;12.50;76.70;;;;;;7381275;19;20054;-70
2023/04/09 01:17:43;;;;;;;24.08;13.38;;;12.40;76.80;;;;;;7400295;19;20094;-70
2023/04/09 01:20:16;;;;;;;28.80;14.02;;;12.40;76.80;;;;;;7379024;19;20011;-70
2023/04/09 01:22:59;;;;;;;26.70;13.95;;;12.30;77.00;;;;;;7379198;19;20010;-70
2023/04/09 01:25:42;;;;;;;26.75;13.30;;;12.20;77.20;;;;;;7379924;19;20010;-70
2023/04/09 01:28:21;;;;;;;22.48;12.13;;;12.20;76.90;;;;;;7379942;19;20069;-70
2023/04/09 01:30:52;;;;;;;22.20;12.27;;;12.20;77.20;;;;;;7379713;19;20023;-70
2023/04/09 01:33:22;;;;;;;25.55;13.65;;;12.10;77.30;;;;;;7379630;19;19996;-70
2023/04/09 01:35:53;;;;;;;26.42;13.32;;;12.10;77.70;;;;;;7399186;19;20062;-70
2023/04/09 01:38:23;;;;;;;27.77;13.90;;;12.00;78.00;;;;;;7378353;19;19999;-70
2023/04/09 01:40:52;;;;;;;25.48;12.88;;;12.00;78.10;;;;;;7378723;19;20011;-70
2023/04/09 01:43:25;;;;;;;28.05;13.73;;;12.00;77.80;;;;;;7378996;19;20366;-70
2023/04/09 01:45:55;;;;;;;27.17;13.68;;;12.00;77.70;;;;;;7378835;19;20050;-70
2023/04/09 01:48:24;;;;;;;29.20;14.32;;;12.00;78.10;;;;;;7379095;19;20023;-70
2023/04/09 01:50:53;;;;;;;29.90;13.30;;;12.00;78.00;;;;;;7398688;19;20078;-70
2023/04/09 01:53:27;;;;;;;32.95;13.88;;;12.00;78.30;;;;;;7377800;19;20023;-70
2023/04/09 01:55:56;;;;;;;27.48;13.40;;;12.00;78.10;;;;;;7374708;19;20002;-70
2023/04/09 01:58:28;;;;;;;33.53;13.75;;;12.00;77.90;;;;;;7378718;19;20216;-70
2023/04/09 02:01:08;;;;;;;27.35;14.18;;;12.00;77.80;;;;;;7377357;19;20011;-70
2023/04/09 02:03:41;;;;;;;27.50;14.35;;;12.00;77.60;;;;;;7378620;19;20020;-70
2023/04/09 02:06:16;;;;;;;28.35;13.82;;;11.90;77.90;;;;;;7376512;19;20028;-70
2023/04/09 02:08:47;;;;;;;31.15;13.45;;;11.90;78.20;;;;;;7399580;19;20010;-70
2023/04/09 02:11:17;;;;;;;31.70;14.13;;;11.90;78.30;;;;;;7377463;19;20070;-70
2023/04/09 02:13:54;;;;;;;31.48;14.35;;;11.90;78.00;;;;;;7376963;19;20006;-70
2023/04/09 02:16:23;;;;;;;27.20;13.40;;;11.90;78.00;;;;;;7377330;19;20014;-70
2023/04/09 02:18:55;;;;;;;23.55;13.18;;;11.90;78.20;;;;;;7376539;19;20002;-70
2023/04/09 02:21:25;;;;;;;33.30;14.52;;;11.90;78.00;;;;;;7378376;19;20003;-70
2023/04/09 02:23:54;;;;;;;27.25;14.15;;;11.90;77.90;;;;;;7400110;19;20015;-71
2023/04/09 02:26:23;;;;;;;26.83;14.32;;;11.90;77.70;;;;;;7377505;19;20027;-71
2023/04/09 02:28:54;;;;;;;28.35;14.50;;;11.90;77.70;;;;;;7378251;19;20013;-71
2023/04/09 02:31:23;;;;;;;30.40;14.68;;;11.90;77.80;;;;;;7378305;19;20309;-71
2023/04/09 02:33:52;;;;;;;28.70;13.90;;;11.80;78.00;;;;;;7376566;19;20023;-71
2023/04/09 02:36:26;;;;;;;31.50;14.60;;;11.80;78.20;;;;;;7376493;19;20015;-71
2023/04/09 02:38:55;;;;;;;27.52;14.60;;;11.80;78.40;;;;;;7398587;19;20023;-71
2023/04/09 02:41:24;;;;;;;32.65;14.60;;;11.70;78.30;;;;;;7377059;19;20010;-71
2023/04/09 02:43:55;;;;;;;26.33;14.27;;;11.80;78.30;;;;;;7376668;19;20002;-71
2023/04/09 02:46:24;;;;;;;31.58;15.65;;;11.70;79.10;;;;;;7377051;19;20062;-71
2023/04/09 02:48:53;;;;;;;26.40;14.10;;;11.70;78.30;;;;;;7375952;19;20074;-71
2023/04/09 02:51:22;;;;;;;28.13;14.05;;;11.70;78.00;;;;;;7377388;19;20079;-71
2023/04/09 02:53:50;;;;;;;26.80;14.57;;;11.70;77.90;;;;;;7396509;19;20070;-71
2023/04/09 02:56:19;;;;;;;24.83;12.93;;;11.80;77.80;;;;;;7375104;19;20062;-70
2023/04/09 02:58:50;;;;;;;27.80;14.30;;;11.70;77.60;;;;;;7376475;19;20002;-70
2023/04/09 03:01:21;;;;;;;30.42;13.70;;;11.70;77.40;;;;;;7377147;19;20013;-68
2023/04/09 03:03:50;;;;;;;31.15;15.15;;;11.80;77.80;;;;;;7376013;19;20007;-69
2023/04/09 03:06:19;;;;;;;30.75;14.75;;;11.80;77.80;;;;;;7376295;19;20023;-70
2023/04/09 03:08:48;;;;;;;26.77;14.15;;;11.80;77.70;;;;;;7404217;19;20031;-71
2023/04/09 03:11:16;;;;;;;29.63;15.32;;;11.80;77.80;;;;;;7383591;19;20066;-71
2023/04/09 03:13:45;;;;;;;31.80;14.63;;;11.70;77.70;;;;;;7384271;19;20003;-70
2023/04/09 03:16:14;;;;;;;38.33;14.60;;;11.70;77.70;;;;;;7385354;19;20010;-70
2023/04/09 03:18:45;;;;;;;34.00;15.52;;;11.70;77.90;;;;;;7383673;19;20029;-70
2023/04/09 03:21:15;;;;;;;38.30;16.42;;;11.70;78.00;;;;;;7384566;19;20020;-70
2023/04/09 03:23:43;;;;;;;32.75;16.35;;;11.60;77.90;;;;;;7403661;19;20007;-71
2023/04/09 03:26:12;;;;;;;31.50;15.60;;;11.60;77.80;;;;;;7384201;19;20010;-70
2023/04/09 03:28:41;;;;;;;34.30;15.00;;;11.60;78.10;;;;;;7384199;19;20015;-71
2023/04/09 03:31:09;;;;;;;34.67;14.88;;;11.60;78.10;;;;;;7382549;19;20264;-69
2023/04/09 03:33:38;;;;;;;30.23;14.35;;;11.50;77.80;;;;;;7383184;19;20117;-70
2023/04/09 03:36:10;;;;;;;28.90;14.60;;;11.60;78.00;;;;;;7381669;19;20071;-70
2023/04/09 03:38:39;;;;;;;31.83;14.82;;;11.50;78.00;;;;;;7404313;19;20226;-71
2023/04/09 03:41:07;;;;;;;33.63;14.43;;;11.50;78.00;;;;;;7381849;19;20332;-71
2023/04/09 03:43:36;;;;;;;34.78;15.18;;;11.50;78.00;;;;;;7382979;19;20080;-70
2023/04/09 03:46:13;;;;;;;35.80;16.38;;;11.50;77.70;;;;;;7381614;19;20019;-70
2023/04/09 03:48:43;;;;;;;31.90;15.32;;;11.50;77.80;;;;;;7382876;19;20006;-70
2023/04/09 03:51:16;;;;;;;39.50;16.35;;;11.40;77.80;;;;;;7382843;19;20015;-70
2023/04/09 03:53:46;;;;;;;36.95;16.35;;;11.40;78.00;;;;;;7404453;19;20023;-70
2023/04/09 03:56:14;;;;;;;36.42;17.13;;;11.40;78.10;;;;;;7380338;19;20033;-70
2023/04/09 03:58:43;;;;;;;34.33;16.15;;;11.40;78.30;;;;;;7382599;19;20060;-70
2023/04/09 04:01:12;;;;;;;33.88;16.23;;;11.40;78.10;;;;;;7383974;19;20370;-70
2023/04/09 04:03:40;;;;;;;39.28;17.27;;;11.40;77.80;;;;;;7384351;19;20113;-70
2023/04/09 04:06:09;;;;;;;38.50;16.73;;;11.40;78.00;;;;;;7384399;19;20099;-70
2023/04/09 04:08:40;;;;;;;35.53;17.77;;;11.20;78.00;;;;;;7406029;19;20035;-70
2023/04/09 04:11:09;;;;;;;37.65;18.27;;;11.20;78.60;;;;;;7382321;19;20010;-70
2023/04/09 04:13:38;;;;;;;41.28;17.58;;;11.10;78.80;;;;;;7381284;19;20046;-70
2023/04/09 04:16:09;;;;;;;36.50;17.73;;;11.10;79.10;;;;;;7381767;19;20006;-70
2023/04/09 04:18:38;;;;;;;39.35;18.15;;;11.00;78.90;;;;;;7379889;19;20018;-70
2023/04/09 04:21:07;;;;;;;38.30;17.98;;;11.00;79.10;;;;;;7381121;19;20040;-70
2023/04/09 04:23:36;;;;;;;39.75;18.92;;;10.90;79.20;;;;;;7402510;19;20245;-70
2023/04/09 04:26:09;;;;;;;41.25;18.80;;;10.90;79.20;;;;;;7380778;19;20070;-70
2023/04/09 04:28:38;;;;;;;40.17;17.30;;;10.90;79.30;;;;;;7381148;19;20407;-69
2023/04/09 04:31:11;;;;;;;39.83;17.40;;;10.80;79.20;;;;;;7381059;19;20017;-71
2023/04/09 04:33:40;;;;;;;38.05;15.98;;;10.80;79.50;;;;;;7379833;19;20010;-70
2023/04/09 04:36:10;;;;;;;35.90;16.15;;;10.80;79.20;;;;;;7379692;19;20037;-71
2023/04/09 04:38:40;;;;;;;36.88;15.68;;;10.80;79.30;;;;;;7402302;19;20264;-69
2023/04/09 04:41:13;;;;;;;33.72;15.98;;;10.90;79.10;;;;;;7380819;19;20013;-69
2023/04/09 04:43:42;;;;;;;43.08;17.83;;;10.90;79.10;;;;;;7381007;19;20010;-70
2023/04/09 04:46:11;;;;;;;41.33;17.65;;;10.90;78.60;;;;;;7380662;19;20031;-70
2023/04/09 04:48:39;;;;;;;39.20;17.95;;;10.90;78.60;;;;;;7380826;19;20006;-69
2023/04/09 04:51:08;;;;;;;39.15;18.15;;;10.90;78.60;;;;;;7378413;19;20015;-69
2023/04/09 04:53:37;;;;;;;37.80;18.48;;;10.90;78.70;;;;;;7402309;19;20015;-70
2023/04/09 04:56:06;;;;;;;37.47;17.52;;;10.90;78.80;;;;;;7379192;19;20010;-71
2023/04/09 04:58:37;;;;;;;38.92;18.40;;;10.90;78.90;;;;;;7380242;19;20012;-71
2023/04/09 05:01:06;;;;;;;38.30;17.55;;;10.90;78.70;;;;;;7380459;19;20366;-70
2023/04/09 05:03:35;;;;;;;38.08;18.27;;;10.80;78.40;;;;;;7380296;19;20006;-71
2023/04/09 05:06:03;;;;;;;35.85;17.45;;;10.80;78.40;;;;;;7380261;19;20063;-70
2023/04/09 05:08:32;;;;;;;41.65;17.85;;;10.80;78.50;;;;;;7401593;19;20010;-71
2023/04/09 05:11:01;;;;;;;44.30;17.95;;;10.70;78.60;;;;;;7378961;19;20280;-71
2023/04/09 05:13:30;;;;;;;38.90;17.38;;;10.70;78.80;;;;;;7378879;19;20074;-69
2023/04/09 05:16:01;;;;;;;38.97;18.15;;;10.70;78.80;;;;;;7377807;19;20034;-69
2023/04/09 05:18:30;;;;;;;41.38;17.80;;;10.70;78.80;;;;;;7377960;19;20010;-69
2023/04/09 05:20:58;;;;;;;38.47;17.33;;;10.70;78.60;;;;;;7401198;19;20361;-69
2023/04/09 05:23:27;;;;;;;35.70;17.52;;;10.70;78.80;;;;;;7379074;19;20014;-70
2023/04/09 05:25:56;;;;;;;36.13;17.25;;;10.70;78.60;;;;;;7378930;19;20010;-69
2023/04/09 05:28:24;;;;;;;35.47;16.48;;;10.70;78.60;;;;;;7378894;19;20010;-70
2023/04/09 05:30:53;;;;;;;33.03;16.67;;;10.70;78.50;;;;;;7376129;19;20006;-69
2023/04/09 05:33:24;;;;;;;34.03;17.08;;;10.70;78.60;;;;;;7379772;19;20138;-70
2023/04/09 05:35:53;;;;;;;38.72;18.83;;;10.70;78.80;;;;;;7400507;19;20011;-70
2023/04/09 05:38:21;;;;;;;42.22;17.67;;;10.80;78.50;;;;;;7379269;19;20023;-70
2023/04/09 05:40:50;;;;;;;38.58;17.08;;;10.80;78.60;;;;;;7379261;19;20003;-70
2023/04/09 05:43:19;;;;;;;37.42;17.85;;;10.80;78.60;;;;;;7379838;19;20369;-70
2023/04/09 05:45:48;;;;;;;37.42;17.38;;;10.80;78.60;;;;;;7378901;19;20007;-69
2023/04/09 05:48:17;;;;;;;44.72;18.35;;;10.80;78.60;;;;;;7377755;19;20006;-70
2023/04/09 05:50:53;;;;;;;40.72;17.13;;;10.80;78.80;;;;;;7400414;19;20010;-70
2023/04/09 05:53:22;;;;;;;39.13;17.50;;;10.80;78.80;;;;;;7378164;19;20019;-69
2023/04/09 05:55:51;;;;;;;38.53;18.00;;;10.80;79.00;;;;;;7377080;19;20023;-69
2023/04/09 05:58:20;;;;;;;43.72;17.88;;;10.80;80.10;;;;;;7378671;19;20006;-69
2023/04/09 06:00:50;;;;;;;37.30;18.00;;;10.80;79.30;;;;;;7378138;19;20039;-69
2023/04/09 06:03:19;;;;;;;37.67;18.60;;;10.70;79.50;;;;;;7378450;19;21460;-69
2023/04/09 06:05:47;;;;;;;46.97;19.20;;;10.70;80.00;;;;;;7399931;19;20010;-69
2023/04/09 06:08:19;;;;;;;40.28;17.58;;;10.70;80.20;;;;;;7377522;19;20343;-70
2023/04/09 06:10:47;;;;;;;;;;;10.70;80.30;;;;;;7377975;19;19999;-70
2023/04/09 06:13:16;;;;;;;43.42;17.38;;;10.80;80.30;;;;;;7378241;19;19911;-70
2023/04/09 06:15:45;;;;;;;37.53;17.73;;;10.70;80.40;;;;;;7376660;19;20007;-70
2023/04/09 06:18:13;;;;;;;35.67;18.20;;;10.80;80.50;;;;;;7375941;19;20292;-70
2023/04/09 06:20:42;;;;;;;45.33;18.85;;;10.80;80.40;;;;;;7399247;19;20010;-70
2023/04/09 06:23:11;;;;;;;40.05;18.95;;;10.90;80.60;;;;;;7377464;19;20059;-70
2023/04/09 06:25:43;;;;;;;40.95;19.85;;;10.90;80.80;;;;;;7377256;19;20003;-70
2023/04/09 06:28:12;;;;;;;40.70;19.25;;;11.00;80.80;;;;;;7378038;19;20119;-70
2023/04/09 06:30:40;;;;;;;37.95;19.85;;;11.10;80.90;;;;;;7376469;19;20386;-70
2023/04/09 06:33:09;;;;;;;43.30;21.05;;;11.10;80.80;;;;;;7377752;19;20094;-70
2023/04/09 06:35:38;;;;;;;44.53;19.48;;;11.20;80.80;;;;;;7399062;19;20014;-70
2023/04/09 06:38:08;;;;;;;41.67;19.38;;;11.30;80.80;;;;;;7377322;19;20106;-70
2023/04/09 06:40:39;;;;;;;43.08;19.92;;;11.30;80.60;;;;;;7376812;19;20002;-70
2023/04/09 06:43:11;;;;;;;42.53;20.98;;;11.40;80.80;;;;;;7380716;19;20021;-70
2023/04/09 06:45:39;;;;;;;43.70;20.67;;;11.40;81.00;;;;;;7386033;19;20010;-70
2023/04/09 06:48:08;;;;;;;42.15;20.25;;;11.40;81.10;;;;;;7382123;19;20020;-70
2023/04/09 06:50:37;;;;;;;41.45;20.08;;;11.50;81.30;;;;;;7403087;19;20251;-70
2023/04/09 06:53:05;;;;;;;44.35;22.15;;;11.50;81.30;;;;;;7384000;19;20074;-70
2023/04/09 06:55:34;;;;;;;43.67;21.33;;;11.50;81.60;;;;;;7383176;19;20007;-70
2023/04/09 06:58:03;;;;;;;45.42;22.05;;;11.60;81.60;;;;;;7382979;19;20086;-69
2023/04/09 07:00:35;;;;;;;50.42;23.88;;;11.70;81.60;;;;;;7384683;19;20013;-69
2023/04/09 07:03:04;;;;;;;;;;;11.70;81.80;;;;;;7385580;19;20010;-69
2023/04/09 07:05:33;;;;;;;50.90;23.95;;;11.90;81.90;;;;;;7406908;19;19921;-69
2023/04/09 07:08:01;;;;;;;46.28;22.67;;;11.80;81.90;;;;;;7383216;19;20002;-69
2023/04/09 07:10:30;;;;;;;47.22;23.13;;;11.90;82.20;;;;;;7383316;19;20098;-69
2023/04/09 07:12:58;;;;;;;52.08;23.00;;;11.90;82.50;;;;;;7384258;19;20169;-70
2023/04/09 07:15:27;;;;;;;55.45;23.85;;;12.00;82.60;;;;;;7383557;19;20007;-69
2023/04/09 07:17:59;;;;;;;47.45;23.00;;;12.10;82.70;;;;;;7402629;19;20298;-70
2023/04/09 07:20:28;;;;;;;55.15;25.15;;;12.10;83.00;;;;;;7383323;19;20253;-70
2023/04/09 07:22:56;;;;;;;48.30;24.08;;;12.20;83.10;;;;;;7382427;19;20034;-70
2023/04/09 07:25:25;;;;;;;57.10;25.52;;;12.30;83.20;;;;;;7383697;19;20006;-70
2023/04/09 07:27:54;;;;;;;54.30;24.02;;;12.40;83.00;;;;;;7383468;19;20465;-71
2023/04/09 07:30:23;;;;;;;47.55;24.90;;;12.50;83.10;;;;;;7381595;19;20007;-71
2023/04/09 07:32:52;;;;;;;49.78;23.75;;;12.60;83.30;;;;;;7402407;19;20014;-71
2023/04/09 07:35:23;;;;;;;54.00;24.98;;;12.70;83.30;;;;;;7382973;19;20006;-71
2023/04/09 07:37:52;;;;;;;;;;;12.80;83.30;;;;;;7382169;19;20019;-70
2023/04/09 07:40:20;;;;;;;50.97;24.55;;;13.00;83.40;;;;;;7383289;19;19911;-70
2023/04/09 07:42:49;;;;;;;52.63;25.35;;;13.00;83.10;;;;;;7381214;19;20006;-70
2023/04/09 07:45:18;;;;;;;53.65;24.40;;;13.10;83.30;;;;;;7382981;19;20007;-70
2023/04/09 07:47:47;;;;;;;52.05;25.83;;;13.20;83.30;;;;;;7402323;19;20027;-70
2023/04/09 07:50:15;;;;;;;53.72;24.73;;;13.20;83.40;;;;;;7382348;19;20154;-70
2023/04/09 07:52:47;;;;;;;50.95;25.38;;;13.30;83.40;;;;;;7382504;19;20393;-70
2023/04/09 07:55:16;;;;;;;49.55;25.33;;;13.30;83.40;;;;;;7381252;19;20003;-69
2023/04/09 07:57:44;;;;;;;53.10;24.75;;;13.40;83.20;;;;;;7381310;19;19999;-70
2023/04/09 08:00:14;;;;;;;57.17;25.80;;;13.40;84.20;;;;;;7381008;19;20014;-70
2023/04/09 08:02:43;;;;;;;53.90;25.02;;;13.50;83.30;;;;;;7404260;19;20006;-70
2023/04/09 08:05:12;;;;;;;48.35;25.42;;;13.50;82.80;;;;;;7381653;19;20434;-70
2023/04/09 08:07:40;;;;;;;52.75;26.35;;;13.50;83.20;;;;;;7380893;19;20072;-70
2023/04/09 08:10:15;;;;;;;53.17;26.60;;;13.50;83.80;;;;;;7380972;19;20005;-70
2023/04/09 08:12:43;;;;;;;59.13;26.98;;;13.60;83.00;;;;;;7382280;19;19998;-70
2023/04/09 08:15:15;;;;;;;51.92;25.05;;;13.60;82.90;;;;;;7382224;19;20010;-70
2023/04/09 08:17:43;;;;;;;;;;;13.70;82.90;;;;;;7402209;19;20032;-70
2023/04/09 08:20:15;;;;;;;90.80;36.38;;;13.80;82.90;;;;;;7381237;19;19924;-70
2023/04/09 08:22:44;;;;;;;76.50;33.65;;;13.80;82.60;;;;;;7380865;19;20028;-69
2023/04/09 08:25:15;;;;;;;53.83;24.70;;;13.90;82.50;;;;;;7381607;19;20082;-70
2023/04/09 08:27:44;;;;;;;49.63;23.63;;;13.90;82.50;;;;;;7380272;19;20355;-71
2023/04/09 08:30:14;;;;;;;44.00;22.48;;;13.90;82.40;;;;;;7381608;19;20007;-71
2023/04/09 08:32:44;;;;;;;43.45;22.30;;;14.00;82.30;;;;;;7403722;19;20354;-70
2023/04/09 08:35:13;;;;;;;51.08;24.27;;;14.10;82.20;;;;;;7382568;19;20007;-74
2023/04/09 08:37:41;;;;;;;53.70;23.70;;;14.20;82.20;;;;;;7382838;19;20003;-75
2023/04/09 08:40:11;;;;;;;48.42;24.05;;;14.20;82.40;;;;;;7383448;19;20003;-72
2023/04/09 08:42:46;;;;;;;54.75;24.50;;;14.20;82.30;;;;;;7380525;19;20058;-72
2023/04/09 08:45:15;;;;;;;45.90;23.85;;;14.30;82.20;;;;;;7381275;19;20009;-72
2023/04/09 08:47:46;;;;;;;48.55;23.95;;;14.30;82.20;;;;;;7402885;19;20014;-73
2023/04/09 08:50:15;;;;;;;44.53;23.02;;;14.40;82.30;;;;;;7380851;19;20553;-72
2023/04/09 08:52:45;;;;;;;45.40;23.58;;;14.40;82.40;;;;;;7380687;19;20002;-73
2023/04/09 08:55:17;;;;;;;45.83;22.50;;;14.50;82.10;;;;;;7380870;19;20098;-73
2023/04/09 08:57:48;;;;;;;39.15;21.17;;;14.50;82.10;;;;;;7379927;19;20009;-72
2023/04/09 09:00:17;;;;;;;39.35;21.20;;;14.50;82.20;;;;;;7381286;19;20010;-73
2023/04/09 09:03:04;;;;;;;42.17;21.38;;;14.70;82.20;;;;;;7402125;19;20010;-72
2023/04/09 09:05:38;;;;;;;36.60;20.38;;;14.60;81.80;;;;;;7379914;19;20026;-71
2023/04/09 09:08:09;;;;;;;43.45;19.38;;;14.70;81.60;;;;;;7381343;19;19998;-74
2023/04/09 09:10:42;;;;;;;38.23;19.40;;;14.70;81.50;;;;;;7381855;19;20051;-73
2023/04/09 09:13:25;;;;;;;39.67;18.98;;;14.60;81.60;;;;;;7381663;19;20260;-74
2023/04/09 09:15:55;;;;;;;37.85;19.38;;;14.70;81.50;;;;;;7380504;19;20003;-70
2023/04/09 09:18:39;;;;;;;39.30;19.65;;;14.80;81.30;;;;;;7379124;19;20058;-71
2023/04/09 09:21:19;;;;;;;37.40;19.13;;;14.80;81.40;;;;;;7380488;19;20062;-70
2023/04/09 09:23:49;;;;;;;35.63;18.48;;;14.90;81.40;;;;;;7400004;19;20003;-71
2023/04/09 09:26:20;;;;;;;36.97;18.20;;;14.90;81.20;;;;;;7379378;19;20410;-69
2023/04/09 09:28:51;;;;;;;36.87;19.53;;;14.90;80.80;;;;;;7379849;19;20011;-69
2023/04/09 09:31:21;;;;;;;33.13;16.73;;;14.90;81.10;;;;;;7379327;19;20023;-71
2023/04/09 09:33:50;;;;;;;32.78;16.30;;;15.00;81.40;;;;;;7379508;19;20011;-70
2023/04/09 09:36:33;;;;;;;31.80;16.52;;;15.00;81.50;;;;;;7378457;19;20019;-70
2023/04/09 09:39:08;;;;;;;32.35;16.85;;;15.00;81.10;;;;;;7377972;19;20010;-70
2023/04/09 09:41:38;;;;;;;33.08;16.92;;;15.10;80.90;;;;;;7399542;19;20006;-71
2023/04/09 09:44:10;;;;;;;31.00;16.02;;;15.10;81.80;;;;;;7378818;19;20003;-70
2023/04/09 09:46:41;;;;;;;27.88;15.27;;;15.10;81.30;;;;;;7379236;19;20020;-70
2023/04/09 09:49:10;;;;;;;29.08;15.20;;;15.20;80.50;;;;;;7377248;19;20003;-70
2023/04/09 09:51:41;;;;;;;29.23;15.27;;;15.20;79.80;;;;;;7377808;19;20020;-70
2023/04/09 09:54:11;;;;;;;28.92;14.98;;;15.20;79.70;;;;;;7379367;19;20002;-70
2023/04/09 09:56:42;;;;;;;32.65;15.68;;;15.20;79.10;;;;;;7398137;19;20007;-71
2023/04/09 09:59:21;;;;;;;28.40;14.88;;;15.20;79.40;;;;;;7378563;19;20007;-72
2023/04/09 10:01:53;;;;;;;27.05;15.20;;;15.20;79.70;;;;;;7378613;19;20012;-69
2023/04/09 10:04:22;;;;;;;32.40;14.95;;;15.20;79.10;;;;;;7379301;19;20018;-71
2023/04/09 10:06:52;;;;;;;27.25;14.00;;;15.30;79.30;;;;;;7377714;19;20010;-71
2023/04/09 10:09:23;;;;;;;24.83;12.45;;;15.40;79.10;;;;;;7379021;19;20027;-71
2023/04/09 10:11:52;;;;;;;26.38;14.00;;;15.40;78.60;;;;;;7399380;19;20037;-73
2023/04/09 10:14:24;;;;;;;25.38;13.40;;;15.40;77.90;;;;;;7378210;19;20035;-72
2023/04/09 10:16:53;;;;;;;27.20;13.68;;;15.40;77.70;;;;;;7375960;19;20006;-74
2023/04/09 10:19:22;;;;;;;23.75;13.10;;;15.40;77.00;;;;;;7378433;19;20003;-73
2023/04/09 10:21:59;;;;;;;23.60;12.82;;;15.40;77.00;;;;;;7378130;19;20006;-73
2023/04/09 10:24:27;;;;;;;24.17;13.15;;;15.50;77.00;;;;;;7378974;19;20023;-73
2023/04/09 10:26:57;;;;;;;23.27;13.15;;;15.60;76.80;;;;;;7399867;19;20006;-73
2023/04/09 10:29:31;;;;;;;24.27;12.20;;;15.50;76.70;;;;;;7377629;19;20027;-74
2023/04/09 10:32:06;;;;;;;22.08;11.93;;;15.60;76.50;;;;;;7377163;19;20031;-73
2023/04/09 10:34:39;;;;;;;19.75;12.02;;;15.70;75.60;;;;;;7377614;19;20022;-73
2023/04/09 10:37:16;;;;;;;26.55;12.70;;;15.80;75.10;;;;;;7376908;19;20027;-73
2023/04/09 10:39:47;;;;;;;18.50;10.68;;;15.80;75.40;;;;;;7377846;19;20034;-73
2023/04/09 10:42:20;;;;;;;22.27;11.35;;;15.90;74.60;;;;;;7376637;19;20010;-73
2023/04/09 10:45:07;;;;;;;21.02;11.70;;;15.90;74.40;;;;;;7396900;19;20384;-73
2023/04/09 10:47:37;;;;;;;32.65;10.60;;;15.90;74.80;;;;;;7378967;19;20375;-73
2023/04/09 10:50:19;;;;;;;19.38;11.43;;;15.90;74.30;;;;;;7377372;19;20016;-73
2023/04/09 10:52:48;;;;;;;19.08;10.93;;;16.00;73.70;;;;;;7377487;19;20379;-72
2023/04/09 10:55:35;;;;;;;24.48;13.07;;;16.10;73.00;;;;;;7377493;19;20062;-72
2023/04/09 10:58:05;;;;;;;20.15;11.55;;;16.10;72.50;;;;;;7377696;19;20003;-72
2023/04/09 11:00:40;;;;;;;33.70;12.23;;;16.10;72.50;;;;;;7378844;19;20022;-73
2023/04/09 11:03:26;;;;;;;18.90;10.70;;;16.10;71.60;;;;;;7379433;19;20006;-72
2023/04/09 11:05:59;;;;;;;23.88;12.48;;;16.30;71.30;;;;;;7398079;19;20020;-73
2023/04/09 11:08:31;;;;;;;28.63;12.45;;;16.30;71.30;;;;;;7376706;19;20050;-72
2023/04/09 11:11:00;;;;;;;19.42;12.27;;;16.30;71.50;;;;;;7376197;19;20003;-72
2023/04/09 11:13:32;;;;;;;19.63;11.38;;;16.30;71.50;;;;;;7376639;19;20014;-72
2023/04/09 11:16:05;;;;;;;21.73;11.85;;;16.40;71.10;;;;;;7376804;19;20002;-73
2023/04/09 11:18:36;;;;;;;15.73;7.90;;;16.50;71.60;;;;;;7375682;19;20003;-73
2023/04/09 11:21:05;;;;;;;18.83;10.07;;;16.50;67.70;;;;;;7376597;19;20020;-73
2023/04/09 11:23:36;;;;;;;14.88;8.80;;;16.50;66.50;;;;;;7396173;19;20007;-73
2023/04/09 11:26:05;;;;;;;14.70;8.25;;;16.50;67.70;;;;;;7376590;19;20062;-73
2023/04/09 11:28:36;;;;;;;11.88;7.68;;;16.60;68.30;;;;;;7376503;19;20008;-73
2023/04/09 11:31:09;;;;;;;15.73;8.13;;;16.60;68.00;;;;;;7381881;19;20011;-72
2023/04/09 11:33:40;;;;;;;22.77;9.07;;;16.70;67.30;;;;;;7383874;19;20110;-72
2023/04/09 11:36:09;;;;;;;17.80;10.85;;;16.80;68.50;;;;;;7383291;19;20308;-73
2023/04/09 11:38:40;;;;;;;14.52;9.38;;;16.80;67.90;;;;;;7403533;19;20014;-73
2023/04/09 11:41:11;;;;;;;17.23;9.35;;;16.90;67.70;;;;;;7382901;19;20006;-73
2023/04/09 11:43:40;;;;;;;;;;;16.80;67.60;;;;;;7383674;19;20409;-73
2023/04/09 11:46:12;;;;;;;15.02;7.97;;;16.90;67.60;;;;;;7383450;19;19907;-69
2023/04/09 11:48:40;;;;;;;14.00;8.13;;;16.90;67.50;;;;;;7382895;19;20009;-71
2023/04/09 11:51:09;;;;;;;14.65;8.25;;;17.00;66.60;;;;;;7382902;19;20074;-71
2023/04/09 11:53:39;;;;;;;15.65;8.65;;;17.00;66.70;;;;;;7401869;19;20010;-72
2023/04/09 11:56:09;;;;;;;16.85;8.50;;;17.10;66.70;;;;;;7382267;19;20003;-72
2023/04/09 11:58:37;;;;;;;14.13;8.90;;;17.10;66.70;;;;;;7380337;19;20277;-72
2023/04/09 12:01:06;;;;;;;19.13;9.35;;;17.10;66.40;;;;;;7383124;19;20003;-72
2023/04/09 12:03:38;;;;;;;14.50;8.65;;;17.10;66.60;;;;;;7383074;19;20003;-71
2023/04/09 12:06:08;;;;;;;15.40;8.88;;;17.20;65.70;;;;;;7380665;19;20011;-72
2023/04/09 12:08:39;;;;;;;15.43;8.43;;;17.10;65.80;;;;;;7404004;19;20006;-72
2023/04/09 12:11:15;;;;;;;13.07;8.13;;;17.10;66.50;;;;;;7382380;19;20058;-72
2023/04/09 12:13:44;;;;;;;13.38;7.50;;;17.20;66.70;;;;;;7383002;19;19999;-72
2023/04/09 12:16:16;;;;;;;13.77;7.95;;;17.20;67.10;;;;;;7384046;19;20014;-72
2023/04/09 12:18:49;;;;;;;14.80;7.82;;;17.20;66.50;;;;;;7381916;19;20070;-72
2023/04/09 12:21:20;;;;;;;13.25;8.07;;;17.30;66.50;;;;;;7383071;19;20014;-72
2023/04/09 12:23:49;;;;;;;13.80;8.23;;;17.40;67.40;;;;;;7403807;19;20024;-72
2023/04/09 12:26:18;;;;;;;19.38;7.97;;;17.50;66.20;;;;;;7381357;19;20393;-72
2023/04/09 12:28:46;;;;;;;12.95;7.70;;;17.60;65.60;;;;;;7381556;19;20007;-72
2023/04/09 12:31:15;;;;;;;12.15;7.22;;;17.70;64.60;;;;;;7380730;19;20103;-72
2023/04/09 12:33:46;;;;;;;11.43;7.03;;;17.80;65.90;;;;;;7381548;19;20024;-72
2023/04/09 12:36:15;;;;;;;11.80;6.68;;;18.00;66.00;;;;;;7381823;19;20398;-72
2023/04/09 12:38:44;;;;;;;10.65;5.65;;;18.10;65.20;;;;;;7402555;19;20023;-72
2023/04/09 12:41:13;;;;;;;10.43;6.47;;;18.30;63.90;;;;;;7379509;19;20296;-73
2023/04/09 12:43:42;;;;;;;11.35;6.10;;;18.30;62.50;;;;;;7381009;19;20376;-72
2023/04/09 12:46:11;;;;;;;10.02;5.68;;;18.40;61.30;;;;;;7381305;19;20234;-73
2023/04/09 12:48:42;;;;;;;14.77;7.35;;;18.40;62.20;;;;;;7380622;19;20007;-71